Time;durP1;ratioP1;P1;durP2;ratioP2;P2;SDS_P1;SDS_P2;PMS_P1;PMS_P2;Temp;Humidity;BMP_temperature;BMP_pressure;BME280_temperature;BME280_humidity;BME280_pressure;Samples;Min_cycle;Max_cycle;Signal;HPM_P1;HPM_P2
2023/05/05 00:02:16;;;;;;;10.50;8.10;;;;;;;8.48;60.94;98349.46;106745;1277;22526;-76
2023/05/05 00:04:45;;;;;;;10.40;8.60;;;;;;;8.45;61.07;98354.58;106794;1277;25282;-76
2023/05/05 00:07:12;;;;;;;10.90;8.10;;;;;;;8.43;60.93;98357.53;106705;1277;22522;-77
2023/05/05 00:09:41;;;;;;;9.00;7.80;;;;;;;8.40;61.56;98354.54;106801;1277;22630;-77
2023/05/05 00:12:09;;;;;;;9.80;8.80;;;;;;;8.37;61.08;98353.98;106834;1277;24200;-76
2023/05/05 00:14:37;;;;;;;11.40;7.90;;;;;;;8.34;61.16;98355.48;106858;1277;24385;-77
2023/05/05 00:17:05;;;;;;;10.30;8.00;;;;;;;8.30;61.11;98355.17;106867;1277;24368;-76
2023/05/05 00:19:33;;;;;;;9.40;7.70;;;;;;;8.25;61.35;98352.98;106635;1277;24218;-76
2023/05/05 00:22:01;;;;;;;11.60;8.30;;;;;;;8.24;61.38;98353.96;106865;1277;22566;-76
2023/05/05 00:24:29;;;;;;;11.20;8.40;;;;;;;8.20;61.54;98348.58;106836;1277;25456;-76
2023/05/05 00:26:57;;;;;;;12.00;8.00;;;;;;;8.18;61.51;98346.73;106815;1277;22654;-76
2023/05/05 00:29:25;;;;;;;9.20;7.90;;;;;;;8.16;61.29;98342.86;106827;1277;22653;-77
2023/05/05 00:31:53;;;;;;;8.70;7.80;;;;;;;8.13;61.62;98336.05;106793;1277;22584;-76
2023/05/05 00:34:21;;;;;;;9.40;7.70;;;;;;;8.11;61.21;98334.86;106698;1277;24223;-76
2023/05/05 00:36:49;;;;;;;9.40;7.40;;;;;;;8.07;61.44;98335.73;106771;1277;24384;-76
2023/05/05 00:39:17;;;;;;;12.10;8.20;;;;;;;8.03;61.62;98337.20;106731;1277;22575;-76
2023/05/05 00:41:45;;;;;;;12.90;8.70;;;;;;;7.97;61.98;98331.58;106694;1277;23275;-76
2023/05/05 00:44:13;;;;;;;9.80;7.90;;;;;;;7.89;62.30;98325.02;106655;1277;22995;-76
2023/05/05 00:46:42;;;;;;;9.90;8.00;;;;;;;7.83;62.09;98325.52;106444;1277;22818;-75
2023/05/05 00:49:11;;;;;;;10.30;8.10;;;;;;;7.79;62.34;98324.61;106673;1277;24343;-75
2023/05/05 00:51:39;;;;;;;11.10;7.90;;;;;;;7.72;62.48;98320.86;106750;1277;25269;-76
2023/05/05 00:54:07;;;;;;;10.20;7.40;;;;;;;7.67;62.39;98315.77;106675;1277;22528;-75
2023/05/05 00:56:36;;;;;;;9.90;7.60;;;;;;;7.68;62.98;98313.95;106836;1277;22623;-75
2023/05/05 00:59:04;;;;;;;8.80;7.40;;;;;;;7.73;63.43;98312.81;106699;1277;22553;-75
2023/05/05 01:01:32;;;;;;;9.40;7.30;;;;;;;7.76;63.56;98312.02;106659;1277;22532;-75
2023/05/05 01:04:00;;;;;;;9.00;7.50;;;;;;;7.78;63.17;98314.80;106634;1277;24226;-76
2023/05/05 01:06:50;;;;;;;9.30;7.50;;;;;;;7.78;63.19;98312.39;106476;1277;25390;-76
2023/05/05 01:09:56;;;;;;;9.40;7.80;;;;;;;7.76;63.07;98312.00;106547;1277;22513;-76
2023/05/05 01:13:07;;;;;;;9.80;8.10;;;;;;;7.69;63.51;98306.27;106512;1277;22789;-75
2023/05/05 01:16:00;;;;;;;12.10;8.30;;;;;;;7.63;63.13;98306.39;106630;1273;22524;-75
2023/05/05 01:18:40;;;;;;;12.60;7.30;;;;;;;7.58;63.15;98306.27;106767;1277;22674;-76
2023/05/05 01:21:15;;;;;;;10.20;7.80;;;;;;;7.55;63.13;98310.79;106564;1277;24194;-77
2023/05/05 01:24:05;;;;;;;9.10;7.60;;;;;;;7.52;63.09;98310.30;106708;1277;25639;-76
2023/05/05 01:27:08;;;;;;;8.50;7.60;;;;;;;7.49;62.88;98312.50;106879;1277;22748;-78
2023/05/05 01:30:02;;;;;;;10.60;8.00;;;;;;;7.42;62.92;98315.08;106883;1277;25644;-77
2023/05/05 01:32:39;;;;;;;11.90;8.50;;;;;;;7.36;62.90;98313.41;107001;1277;22622;-77
2023/05/05 01:35:17;;;;;;;9.50;7.30;;;;;;;7.29;62.95;98312.23;106815;1277;22543;-77
2023/05/05 01:37:50;;;;;;;7.80;7.00;;;;;;;7.21;63.28;98309.70;106676;1277;22732;-77
2023/05/05 01:40:26;;;;;;;11.00;7.80;;;;;;;7.14;63.14;98306.64;106784;1256;23329;-75
2023/05/05 01:42:57;;;;;;;8.90;7.20;;;;;;;7.06;63.34;98305.13;106707;1277;25268;-76
2023/05/05 01:45:31;;;;;;;11.50;7.30;;;;;;;6.99;63.34;98306.50;106489;1277;25280;-75
2023/05/05 01:48:00;;;;;;;11.80;6.90;;;;;;;6.94;63.31;98305.68;106692;1277;22649;-76
2023/05/05 01:50:30;;;;;;;10.70;6.90;;;;;;;6.86;63.68;98308.56;106794;1277;22643;-76
2023/05/05 01:53:00;;;;;;;8.50;7.00;;;;;;;6.78;63.73;98305.54;106803;1277;25380;-76
2023/05/05 01:55:31;;;;;;;9.00;7.20;;;;;;;6.73;64.29;98303.59;106829;1277;25478;-77
2023/05/05 01:58:01;;;;;;;8.50;7.30;;;;;;;6.62;64.22;98302.28;106848;1277;22572;-77
2023/05/05 02:00:30;;;;;;;10.70;7.30;;;;;;;6.55;64.38;98304.66;106729;1277;22559;-76
2023/05/05 02:03:03;;;;;;;8.90;7.90;;;;;;;6.46;64.29;98305.86;106835;1277;22656;-77
2023/05/05 02:05:33;;;;;;;9.90;7.70;;;;;;;6.38;64.54;98306.14;106810;1277;22525;-77
2023/05/05 02:08:04;;;;;;;9.40;7.70;;;;;;;6.32;64.67;98305.11;106803;1277;22515;-76
2023/05/05 02:10:33;;;;;;;10.00;8.50;;;;;;;6.28;65.09;98310.97;106671;1277;23234;-76
2023/05/05 02:13:01;;;;;;;11.40;10.30;;;;;;;6.25;65.38;98312.13;106665;1277;25390;-76
2023/05/05 02:15:32;;;;;;;11.40;9.80;;;;;;;6.22;65.48;98313.04;106600;1277;22518;-78
2023/05/05 02:18:01;;;;;;;9.50;7.50;;;;;;;6.21;65.26;98309.81;106732;1277;23190;-76
2023/05/05 02:20:30;;;;;;;9.00;8.00;;;;;;;6.20;65.15;98310.07;106470;1277;22544;-77
2023/05/05 02:22:58;;;;;;;9.70;8.10;;;;;;;6.21;65.51;98312.07;106475;1277;22797;-75
2023/05/05 02:25:36;;;;;;;8.70;7.20;;;;;;;6.21;65.67;98309.06;106440;1277;22539;-77
2023/05/05 02:28:10;;;;;;;8.00;7.10;;;;;;;6.09;66.45;98307.87;106706;1277;22788;-77
2023/05/05 02:30:39;;;;;;;8.70;6.80;;;;;;;5.93;66.85;98305.31;106769;1277;24060;-77
2023/05/05 02:33:10;;;;;;;7.90;7.00;;;;;;;5.86;66.93;98304.76;106595;1277;23896;-77
2023/05/05 02:35:41;;;;;;;9.50;7.50;;;;;;;5.85;67.28;98305.63;106673;1277;22653;-76
2023/05/05 02:38:16;;;;;;;9.10;8.20;;;;;;;5.85;67.17;98303.31;106647;1277;22667;-77
2023/05/05 02:40:48;;;;;;;10.10;8.00;;;;;;;5.88;67.54;98301.04;106637;1277;22521;-77
2023/05/05 02:43:20;;;;;;;9.50;7.20;;;;;;;5.96;67.34;98301.49;106729;1277;22659;-78
2023/05/05 02:45:48;;;;;;;8.00;6.90;;;;;;;6.05;67.26;98299.98;106788;1277;25274;-77
2023/05/05 02:48:17;;;;;;;8.90;7.10;;;;;;;6.11;67.26;98301.20;106690;1277;22524;-78
2023/05/05 02:50:45;;;;;;;10.60;8.10;;;;;;;6.15;67.30;98302.30;106616;1277;23851;-77
2023/05/05 02:53:28;;;;;;;10.00;7.80;;;;;;;6.15;68.03;98303.90;106697;1277;22590;-78
2023/05/05 02:56:10;;;;;;;16.40;14.40;;;;;;;6.06;69.29;98305.63;106820;1277;22531;-78
2023/05/05 02:59:03;;;;;;;8.20;7.40;;;;;;;6.00;69.37;98309.27;106770;1277;22923;-76
2023/05/05 03:01:58;;;;;;;8.80;7.50;;;;;;;5.90;69.61;98311.87;106894;1277;25256;-78
2023/05/05 03:04:35;;;;;;;7.30;6.30;;;;;;;5.83;69.34;98309.40;106733;1277;25239;-79
2023/05/05 03:07:10;;;;;;;7.70;6.00;;;;;;;5.83;69.37;98308.40;106708;1277;22537;-77
2023/05/05 03:10:04;;;;;;;8.70;7.30;;;;;;;5.87;69.42;98300.27;106501;1277;22535;-80
2023/05/05 03:12:47;;;;;;;9.40;7.80;;;;;;;5.92;69.49;98298.19;106573;1277;24438;-76
2023/05/05 03:15:33;;;;;;;12.00;8.10;;;;;;;5.97;69.42;98290.75;106864;1277;22527;-77
2023/05/05 03:18:05;;;;;;;10.40;7.50;;;;;;;6.02;69.23;98292.22;106891;1277;22793;-76
2023/05/05 03:20:34;;;;;;;10.50;8.20;;;;;;;6.03;69.30;98290.61;106693;1277;22644;-77
2023/05/05 03:23:06;;;;;;;13.20;8.50;;;;;;;6.02;69.14;98290.40;106627;1277;25374;-78
2023/05/05 03:25:45;;;;;;;10.00;7.80;;;;;;;6.02;69.08;98290.23;106716;1277;22633;-78
2023/05/05 03:28:32;;;;;;;9.50;8.50;;;;;;;6.04;68.96;98293.78;106902;1277;23085;-78
2023/05/05 03:31:03;;;;;;;10.30;8.30;;;;;;;6.06;69.01;98293.08;106664;1277;22534;-77
2023/05/05 03:33:31;;;;;;;13.60;8.50;;;;;;;6.13;69.17;98291.64;106498;1277;22648;-77
2023/05/05 03:36:00;;;;;;;9.30;8.20;;;;;;;6.23;69.04;98289.75;106606;1277;24199;-78
2023/05/05 03:38:28;;;;;;;10.30;7.90;;;;;;;6.32;69.06;98291.99;106553;1277;22567;-77
2023/05/05 03:40:59;;;;;;;11.90;8.40;;;;;;;6.37;69.40;98301.65;106544;1277;22741;-77
2023/05/05 03:43:27;;;;;;;12.00;10.40;;;;;;;6.39;69.14;98305.03;106567;1263;24454;-79
2023/05/05 03:45:55;;;;;;;12.50;11.00;;;;;;;6.43;69.29;98305.69;106574;1277;24193;-77
2023/05/05 03:48:24;;;;;;;15.20;11.00;;;;;;;6.49;69.26;98305.92;106565;1277;22633;-78
2023/05/05 03:50:52;;;;;;;12.10;10.80;;;;;;;6.54;69.26;98300.22;106484;1277;22536;-79
2023/05/05 03:53:21;;;;;;;14.70;10.70;;;;;;;6.59;69.01;98299.53;106725;1277;24351;-78
2023/05/05 03:55:51;;;;;;;13.60;10.00;;;;;;;6.62;69.04;98298.16;106681;1277;22611;-77
2023/05/05 03:58:19;;;;;;;11.80;10.40;;;;;;;6.65;68.87;98298.01;106706;1277;22650;-78
2023/05/05 04:00:47;;;;;;;12.50;11.10;;;;;;;6.66;68.97;98300.79;106943;1277;22630;-77
2023/05/05 04:03:16;;;;;;;12.90;11.30;;;;;;;6.63;69.04;98301.16;106889;1277;22772;-78
2023/05/05 04:05:45;;;;;;;13.70;10.10;;;;;;;6.64;68.88;98302.60;106624;1277;24609;-77
2023/05/05 04:08:14;;;;;;;11.10;8.80;;;;;;;6.67;69.17;98305.83;106777;1277;24261;-77
2023/05/05 04:10:42;;;;;;;11.20;9.50;;;;;;;6.68;69.88;98309.52;106538;1277;22515;-77
2023/05/05 04:13:10;;;;;;;10.60;9.50;;;;;;;6.71;70.03;98311.73;106562;1273;24388;-77
2023/05/05 04:15:45;;;;;;;12.10;9.80;;;;;;;6.75;69.82;98311.96;106626;1277;25360;-78
2023/05/05 04:18:14;;;;;;;;;;;;;;;6.82;69.87;98314.98;106635;1277;22566;-78
2023/05/05 04:20:42;;;;;;;12.60;11.30;;;;;;;6.92;69.82;98310.73;106535;1277;22532;-78
2023/05/05 04:23:10;;;;;;;27.20;22.10;;;;;;;7.03;69.86;98315.14;106822;1277;22613;-78
2023/05/05 04:25:40;;;;;;;17.80;14.70;;;;;;;7.13;69.97;98311.77;106575;1277;22614;-78
2023/05/05 04:28:09;;;;;;;17.00;12.60;;;;;;;7.23;70.03;98316.94;106889;1277;22539;-78
2023/05/05 04:30:37;;;;;;;16.40;14.70;;;;;;;7.33;69.66;98312.44;106753;1277;25614;-78
2023/05/05 04:33:05;;;;;;;27.00;18.50;;;;;;;7.44;69.68;98314.70;106670;1277;22685;-79
2023/05/05 04:35:33;;;;;;;23.20;19.50;;;;;;;7.53;69.55;98314.92;106874;1277;22642;-78
2023/05/05 04:38:02;;;;;;;21.30;17.70;;;;;;;7.61;69.56;98317.27;106893;1277;22534;-78
2023/05/05 04:40:30;;;;;;;17.50;13.30;;;;;;;7.69;69.30;98321.19;106847;1277;22623;-78
2023/05/05 04:42:59;;;;;;;14.10;11.30;;;;;;;7.78;69.60;98326.17;106704;1277;22527;-78
2023/05/05 04:45:27;;;;;;;20.80;14.40;;;;;;;7.91;69.55;98329.10;106699;1277;25612;-78
2023/05/05 04:47:55;;;;;;;17.20;15.60;;;;;;;8.02;69.69;98334.14;106812;1277;22749;-77
2023/05/05 04:50:23;;;;;;;17.40;15.50;;;;;;;8.08;69.94;98331.23;106870;1277;22648;-77
2023/05/05 04:52:51;;;;;;;27.40;18.10;;;;;;;8.12;69.95;98331.85;106903;1277;25448;-77
2023/05/05 04:55:20;;;;;;;18.40;16.50;;;;;;;8.16;69.99;98330.45;106974;1277;24194;-77
2023/05/05 04:57:48;;;;;;;21.40;16.80;;;;;;;8.22;69.84;98336.03;106686;1277;23447;-77
2023/05/05 05:00:16;;;;;;;21.90;14.80;;;;;;;8.27;69.71;98338.98;106783;1277;23030;-77
2023/05/05 05:02:44;;;;;;;16.50;13.00;;;;;;;8.31;70.05;98333.43;106820;1277;22871;-78
2023/05/05 05:05:13;;;;;;;16.70;13.70;;;;;;;8.36;69.90;98334.48;106858;1277;22517;-77
2023/05/05 05:07:41;;;;;;;14.80;11.90;;;;;;;8.43;69.87;98340.62;106918;1277;24266;-77
2023/05/05 05:10:09;;;;;;;18.10;12.50;;;;;;;8.55;69.99;98343.15;106674;1277;24337;-76
2023/05/05 05:12:37;;;;;;;14.90;12.10;;;;;;;8.70;69.98;98341.96;106463;1277;24380;-76
2023/05/05 05:15:06;;;;;;;13.90;11.70;;;;;;;8.85;69.80;98341.89;106465;1277;22624;-76
2023/05/05 05:17:35;;;;;;;14.70;11.70;;;;;;;9.00;69.86;98339.52;106639;1277;24070;-79
2023/05/05 05:20:04;;;;;;;16.40;13.10;;;;;;;9.16;69.49;98341.35;106794;1277;22548;-76
2023/05/05 05:22:33;;;;;;;11.00;9.60;;;;;;;9.32;69.09;98341.57;106735;1277;25272;-77
2023/05/05 05:25:02;;;;;;;12.00;9.80;;;;;;;9.46;68.82;98342.13;106575;1277;24378;-79
2023/05/05 05:27:30;;;;;;;12.50;10.40;;;;;;;9.63;68.46;98348.35;106740;1277;24193;-78
2023/05/05 05:29:58;;;;;;;9.80;8.70;;;;;;;9.75;68.14;98351.73;106813;1277;22517;-77
2023/05/05 05:32:28;;;;;;;11.20;6.90;;;;;;;9.90;68.39;98349.35;106737;1277;22532;-75
2023/05/05 05:34:56;;;;;;;10.10;7.40;;;;;;;10.40;69.44;98346.99;106490;1277;24378;-74
2023/05/05 05:37:28;;;;;;;13.90;8.60;;;;;;;10.93;69.07;98345.14;106631;1277;22782;-75
2023/05/05 05:39:56;;;;;;;10.70;7.70;;;;;;;11.28;68.75;98347.70;106599;1277;25506;-75
2023/05/05 05:42:25;;;;;;;10.30;7.90;;;;;;;11.62;68.58;98347.31;106635;1277;24622;-75
2023/05/05 05:44:53;;;;;;;9.10;7.50;;;;;;;11.86;68.19;98348.19;106744;1265;25221;-76
2023/05/05 05:47:22;;;;;;;8.90;7.80;;;;;;;12.05;68.18;98350.63;106597;1277;22548;-76
2023/05/05 05:49:51;;;;;;;8.80;7.80;;;;;;;12.33;67.51;98356.13;106415;1265;167928;-75
2023/05/05 05:52:19;;;;;;;12.60;7.20;;;;;;;12.56;67.26;98356.07;106698;1277;22771;-74
2023/05/05 05:54:48;;;;;;;10.80;8.60;;;;;;;12.74;66.91;98357.81;107263;1277;25609;-76
2023/05/05 05:57:16;;;;;;;14.10;7.20;;;;;;;12.92;66.35;98356.41;106764;1277;22826;-75
2023/05/05 05:59:44;;;;;;;9.80;7.40;;;;;;;13.18;65.43;98354.89;106502;1253;25393;-77
2023/05/05 06:02:12;;;;;;;9.60;6.90;;;;;;;13.46;64.31;98354.36;106783;1270;22566;-78
2023/05/05 06:04:41;;;;;;;9.90;8.10;;;;;;;13.69;63.97;98355.88;106643;1277;22554;-78
2023/05/05 06:07:09;;;;;;;10.40;7.40;;;;;;;13.83;62.60;98359.64;106719;1277;23260;-78
2023/05/05 06:09:37;;;;;;;10.30;7.80;;;;;;;13.95;62.61;98353.81;106728;1277;23894;-76
2023/05/05 06:12:05;;;;;;;11.00;7.20;;;;;;;14.06;62.70;98353.71;106530;1277;22549;-75
2023/05/05 06:14:35;;;;;;;9.20;7.60;;;;;;;14.20;62.79;98356.27;106458;1277;22662;-74
2023/05/05 06:17:03;;;;;;;9.90;7.40;;;;;;;14.25;61.02;98353.27;106539;1277;22697;-77
2023/05/05 06:19:31;;;;;;;11.00;7.50;;;;;;;14.00;59.95;98354.94;106835;1277;22633;-77
2023/05/05 06:21:59;;;;;;;8.80;7.10;;;;;;;13.68;59.96;98359.94;106771;1277;22571;-79
2023/05/05 06:24:28;;;;;;;10.30;6.30;;;;;;;13.47;59.16;98362.23;106813;1277;24238;-79
2023/05/05 06:26:58;;;;;;;12.70;6.20;;;;;;;13.30;58.54;98365.80;106605;1277;22580;-77
2023/05/05 06:29:26;;;;;;;8.80;6.70;;;;;;;13.18;58.90;98366.30;106622;1277;22643;-76
2023/05/05 06:31:55;;;;;;;8.90;6.20;;;;;;;13.11;58.10;98373.42;106605;1277;22991;-77
2023/05/05 06:34:23;;;;;;;7.30;6.00;;;;;;;13.09;58.72;98373.05;106841;1277;23888;-79
2023/05/05 06:36:51;;;;;;;10.80;6.10;;;;;;;13.09;57.45;98376.02;106769;1277;23495;-79
2023/05/05 06:39:19;;;;;;;7.50;5.90;;;;;;;13.12;57.42;98375.38;106827;1277;24223;-77
2023/05/05 06:41:47;;;;;;;8.40;5.70;;;;;;;13.16;57.97;98369.60;106650;1277;24056;-78
2023/05/05 06:44:15;;;;;;;9.70;6.20;;;;;;;13.22;57.11;98368.40;106739;1277;22542;-76
2023/05/05 06:46:43;;;;;;;8.10;5.60;;;;;;;13.29;57.60;98366.81;106823;1277;22816;-77
2023/05/05 06:49:11;;;;;;;8.70;6.00;;;;;;;13.39;57.50;98369.13;107154;1277;22629;-79
2023/05/05 06:51:39;;;;;;;8.30;5.30;;;;;;;13.47;56.86;98365.38;106932;1277;24402;-82
2023/05/05 06:54:09;;;;;;;10.50;5.40;;;;;;;13.54;56.34;98369.48;106895;1277;22519;-79
2023/05/05 06:56:37;;;;;;;8.00;6.10;;;;;;;13.57;56.12;98368.64;106729;1277;22559;-77
2023/05/05 06:59:05;;;;;;;11.20;6.10;;;;;;;13.61;55.76;98368.02;106888;1277;24496;-77
2023/05/05 07:01:33;;;;;;;7.30;5.60;;;;;;;13.67;55.05;98367.40;107027;1277;25486;-76
2023/05/05 07:04:01;;;;;;;9.20;5.50;;;;;;;13.72;55.01;98368.22;106993;1277;22521;-78
2023/05/05 07:06:30;;;;;;;10.20;5.50;;;;;;;13.78;55.04;98365.30;106622;1277;23557;-80
2023/05/05 07:08:58;;;;;;;9.60;5.60;;;;;;;13.80;54.19;98368.77;106905;1277;22651;-77
2023/05/05 07:11:26;;;;;;;9.80;6.60;;;;;;;13.82;54.86;98364.92;106812;1277;25090;-77
2023/05/05 07:13:54;;;;;;;9.80;6.00;;;;;;;13.89;54.14;98363.40;106867;1277;23424;-76
2023/05/05 07:16:25;;;;;;;13.20;6.30;;;;;;;13.93;54.39;98366.86;106993;1277;24060;-75
2023/05/05 07:18:54;;;;;;;10.80;6.00;;;;;;;14.04;53.97;98360.43;106758;1277;25323;-76
2023/05/05 07:21:21;;;;;;;10.40;6.30;;;;;;;14.12;53.69;98360.45;106991;1263;22531;-76
2023/05/05 07:23:49;;;;;;;9.50;6.60;;;;;;;14.18;53.66;98363.45;106782;1277;22558;-76
2023/05/05 07:26:17;;;;;;;10.10;6.70;;;;;;;14.26;53.28;98362.73;106745;1270;25453;-77
2023/05/05 07:28:45;;;;;;;7.60;6.10;;;;;;;14.31;53.22;98359.02;106967;1269;22567;-77
2023/05/05 07:31:13;;;;;;;7.70;6.30;;;;;;;14.43;52.89;98360.48;106779;1275;24078;-77
2023/05/05 07:33:41;;;;;;;9.60;6.00;;;;;;;14.49;52.73;98351.13;106803;1277;22538;-78
2023/05/05 07:36:09;;;;;;;7.80;6.10;;;;;;;14.64;52.86;98357.67;106812;1277;25423;-77
2023/05/05 07:38:37;;;;;;;10.20;5.60;;;;;;;14.79;53.09;98356.60;107025;1276;22518;-77
2023/05/05 07:41:05;;;;;;;9.60;5.90;;;;;;;14.94;52.83;98355.68;106848;1276;22538;-78
2023/05/05 07:43:33;;;;;;;10.40;5.20;;;;;;;15.06;52.54;98351.86;107087;1276;22529;-77
2023/05/05 07:46:01;;;;;;;9.30;6.30;;;;;;;15.15;51.86;98350.71;106824;1276;24468;-77
2023/05/05 07:48:29;;;;;;;8.00;5.20;;;;;;;15.22;51.57;98347.95;106812;1272;22533;-78
2023/05/05 07:50:57;;;;;;;8.50;5.10;;;;;;;15.32;50.55;98347.15;106782;1276;24365;-79
2023/05/05 07:53:26;;;;;;;8.40;5.90;;;;;;;15.41;50.62;98343.20;107052;1276;24205;-77
2023/05/05 07:55:54;;;;;;;7.10;5.10;;;;;;;15.49;49.92;98342.56;106819;1276;24373;-77
2023/05/05 07:58:22;;;;;;;8.80;6.90;;;;;;;15.57;50.62;98343.98;106828;1276;22764;-77
2023/05/05 08:00:50;;;;;;;9.80;5.00;;;;;;;15.69;50.30;98349.02;107072;1253;22627;-78
2023/05/05 08:03:22;;;;;;;8.30;5.50;;;;;;;15.77;50.29;98349.31;107067;1276;24050;-77
2023/05/05 08:05:53;;;;;;;6.50;4.60;;;;;;;15.85;49.81;98349.98;107135;1276;26515;-78
2023/05/05 08:08:23;;;;;;;6.70;4.40;;;;;;;15.90;49.46;98349.86;107156;1276;25096;-79
2023/05/05 08:10:52;;;;;;;6.80;4.40;;;;;;;15.98;49.64;98348.19;107143;1276;22574;-79
2023/05/05 08:13:20;;;;;;;5.60;4.60;;;;;;;16.04;49.34;98344.87;107100;1272;22771;-80
2023/05/05 08:15:48;;;;;;;6.40;4.20;;;;;;;16.08;48.78;98349.73;106875;1276;24360;-79
2023/05/05 08:18:16;;;;;;;7.90;4.50;;;;;;;16.16;48.09;98345.87;107066;1269;22644;-79
2023/05/05 08:20:44;;;;;;;7.10;4.40;;;;;;;16.23;48.01;98346.55;107045;1276;25303;-80
2023/05/05 08:23:12;;;;;;;7.10;4.60;;;;;;;16.31;47.71;98344.16;107081;1276;25380;-80
2023/05/05 08:25:40;;;;;;;5.50;4.10;;;;;;;16.42;47.56;98347.16;107059;1276;24226;-78
2023/05/05 08:28:09;;;;;;;8.70;4.30;;;;;;;16.50;46.80;98343.45;107122;1276;22577;-77
2023/05/05 08:30:37;;;;;;;8.00;4.90;;;;;;;16.56;46.64;98342.69;107093;1276;25477;-77
2023/05/05 08:33:05;;;;;;;8.20;5.30;;;;;;;16.62;46.43;98346.50;106799;1276;22677;-77
2023/05/05 08:35:33;;;;;;;6.80;4.60;;;;;;;16.67;46.88;98339.08;106815;1276;22631;-77
2023/05/05 08:38:01;;;;;;;7.10;4.50;;;;;;;16.81;46.17;98343.40;107077;1276;22534;-78
2023/05/05 08:40:35;;;;;;;7.00;4.70;;;;;;;16.88;46.21;98345.86;106834;1276;22577;-79
2023/05/05 08:43:04;;;;;;;7.20;4.70;;;;;;;17.03;46.53;98343.09;107074;1276;24438;-80
2023/05/05 08:45:32;;;;;;;10.20;4.70;;;;;;;17.19;46.95;98346.72;107168;1266;22531;-83
2023/05/05 08:48:03;;;;;;;10.60;4.70;;;;;;;17.45;46.37;98343.35;107155;1276;22647;-86
2023/05/05 08:50:31;;;;;;;10.40;6.00;;;;;;;17.59;45.68;98340.89;107039;1276;22647;-79
2023/05/05 08:53:09;;;;;;;9.20;5.00;;;;;;;17.70;45.54;98343.23;107168;1276;22625;-84
2023/05/05 08:55:45;;;;;;;8.90;4.40;;;;;;;17.92;46.06;98342.09;107162;1270;22639;-84
2023/05/05 08:58:15;;;;;;;11.80;4.90;;;;;;;18.06;45.41;98341.12;107070;1276;22619;-84
2023/05/05 09:00:44;;;;;;;7.10;4.80;;;;;;;18.16;45.37;98344.95;107106;1276;22627;-84
2023/05/05 09:03:14;;;;;;;7.00;4.40;;;;;;;18.29;45.48;98342.98;107056;1276;25433;-84
2023/05/05 09:05:43;;;;;;;11.80;5.10;;;;;;;18.40;44.34;98341.70;107166;1269;24125;-85
2023/05/05 09:08:11;;;;;;;7.40;4.90;;;;;;;18.46;44.96;98338.54;106854;1252;22655;-83
2023/05/05 09:10:40;;;;;;;9.60;4.40;;;;;;;18.60;43.55;98335.48;107086;1276;22714;-81
2023/05/05 09:13:08;;;;;;;8.70;4.60;;;;;;;18.54;43.73;98337.48;107007;1277;22521;-80
2023/05/05 09:15:37;;;;;;;10.80;5.40;;;;;;;18.46;43.17;98338.05;106978;1277;22529;-78
2023/05/05 09:18:10;;;;;;;8.80;4.30;;;;;;;18.37;43.34;98335.76;107104;1276;25489;-77
2023/05/05 09:20:40;;;;;;;7.30;4.80;;;;;;;18.44;44.03;98340.75;107116;1276;24069;-78
2023/05/05 09:23:19;;;;;;;8.30;4.50;;;;;;;18.57;43.32;98339.85;107104;1276;22584;-77
2023/05/05 09:26:03;;;;;;;8.50;4.60;;;;;;;18.61;43.46;98340.28;107088;1276;22633;-78
2023/05/05 09:28:31;;;;;;;7.00;4.50;;;;;;;18.75;42.68;98338.33;107232;1276;22609;-79
2023/05/05 09:31:14;;;;;;;8.40;5.20;;;;;;;18.89;43.31;98338.08;107114;1276;25239;-78
2023/05/05 09:33:43;;;;;;;8.80;4.90;;;;;;;18.96;43.00;98333.23;107070;1276;22547;-78
2023/05/05 09:36:11;;;;;;;11.20;5.70;;;;;;;19.00;43.10;98334.36;107042;1276;24205;-79
2023/05/05 09:38:39;;;;;;;9.50;5.00;;;;;;;19.10;42.48;98340.96;107108;1276;22532;-79
2023/05/05 09:41:07;;;;;;;8.00;5.00;;;;;;;19.16;42.37;98340.45;107044;1268;24189;-79
2023/05/05 09:43:51;;;;;;;7.30;4.60;;;;;;;19.16;41.95;98337.10;107069;1276;22537;-78
2023/05/05 09:46:19;;;;;;;9.50;4.50;;;;;;;19.15;41.41;98336.28;106808;1276;23942;-79
2023/05/05 09:48:47;;;;;;;9.30;4.80;;;;;;;19.17;42.20;98336.73;107065;1276;25303;-77
2023/05/05 09:51:28;;;;;;;7.10;5.00;;;;;;;19.30;41.70;98335.02;107134;1276;24251;-79
2023/05/05 09:53:56;;;;;;;6.20;4.60;;;;;;;19.42;41.69;98338.34;107136;1276;22623;-78
2023/05/05 09:56:37;;;;;;;12.50;4.50;;;;;;;19.56;41.03;98333.95;107093;1276;22553;-78
2023/05/05 09:59:08;;;;;;;9.30;4.60;;;;;;;19.62;41.13;98342.25;107149;1276;22666;-77
2023/05/05 10:01:37;;;;;;;9.70;4.90;;;;;;;19.62;40.71;98347.49;107185;1269;22528;-78
2023/05/05 10:04:05;;;;;;;6.40;4.80;;;;;;;19.59;40.09;98342.22;107151;1276;23938;-78
2023/05/05 10:06:43;;;;;;;7.90;4.40;;;;;;;19.46;40.03;98339.40;106940;1272;22554;-78
2023/05/05 10:09:11;;;;;;;10.00;3.80;;;;;;;19.48;40.31;98342.65;107109;1276;22541;-77
2023/05/05 10:11:45;;;;;;;6.80;4.10;;;;;;;19.56;39.43;98341.61;107074;1276;22620;-77
2023/05/05 10:14:14;;;;;;;;;;;;;;;19.61;39.02;98343.21;107133;1276;24340;-78
2023/05/05 10:16:47;;;;;;;6.80;4.00;;;;;;;19.66;39.50;98342.09;107091;1276;22578;-79
2023/05/05 10:19:17;;;;;;;12.20;4.30;;;;;;;19.80;39.44;98336.61;107137;1276;22522;-78
2023/05/05 10:22:00;;;;;;;6.90;4.80;;;;;;;19.94;38.80;98335.66;107156;1270;23589;-79
2023/05/05 10:24:37;;;;;;;8.80;4.00;;;;;;;19.96;38.26;98333.77;106932;1253;23086;-78
2023/05/05 10:27:16;;;;;;;6.80;3.80;;;;;;;19.91;37.09;98332.70;107059;1276;22808;-80
2023/05/05 10:29:48;;;;;;;6.80;3.40;;;;;;;19.94;36.50;98333.88;107298;1276;24004;-78
2023/05/05 10:32:25;;;;;;;4.80;3.40;;;;;;;19.99;35.55;98335.08;107513;1276;22580;-79
2023/05/05 10:35:21;;;;;;;6.00;3.30;;;;;;;20.00;36.15;98330.89;107554;1276;22496;-81
2023/05/05 10:37:49;;;;;;;5.40;3.50;;;;;;;19.98;34.66;98323.51;107766;1276;22553;-78
2023/05/05 10:40:21;;;;;;;6.50;3.70;;;;;;;19.97;35.06;98327.13;107476;1276;25524;-79
2023/05/05 10:42:50;;;;;;;6.80;3.80;;;;;;;20.04;35.92;98324.84;108267;1276;22524;-79
2023/05/05 10:45:18;;;;;;;5.50;3.80;;;;;;;20.14;35.74;98323.60;107149;1276;26567;-79
2023/05/05 10:47:46;;;;;;;4.90;3.40;;;;;;;20.26;35.56;98325.32;107156;1276;22520;-78
2023/05/05 10:50:35;;;;;;;4.90;3.30;;;;;;;20.35;35.42;98329.39;106967;1269;24213;-80
2023/05/05 10:53:31;;;;;;;4.70;3.20;;;;;;;20.50;35.50;98321.45;107140;1276;25597;-80
2023/05/05 10:56:09;;;;;;;4.50;3.00;;;;;;;20.59;35.24;98319.67;107076;1276;22543;-82
2023/05/05 10:58:40;;;;;;;4.80;3.20;;;;;;;20.66;34.65;98317.58;107106;1276;22634;-78
2023/05/05 11:01:30;;;;;;;5.80;3.40;;;;;;;20.72;34.61;98315.99;107110;1269;24200;-78
2023/05/05 11:04:18;;;;;;;5.00;4.20;;;;;;;20.77;35.08;98313.46;107200;1276;22578;-80
2023/05/05 11:07:12;;;;;;;6.10;3.00;;;;;;;20.84;34.35;98307.81;107146;1276;24240;-81
2023/05/05 11:10:02;;;;;;;4.70;3.20;;;;;;;20.88;34.68;98306.50;107175;1276;25486;-79
2023/05/05 11:12:32;;;;;;;7.60;3.20;;;;;;;20.97;33.85;98305.06;107125;1269;22541;-77
2023/05/05 11:15:21;;;;;;;7.20;3.00;;;;;;;21.02;33.81;98302.50;106806;1276;22756;-79
2023/05/05 11:17:49;;;;;;;6.50;2.80;;;;;;;21.00;34.40;98300.82;107074;1276;22642;-79
2023/05/05 11:20:42;;;;;;;5.10;2.90;;;;;;;21.03;33.78;98298.48;107061;1276;22637;-77
2023/05/05 11:23:10;;;;;;;7.50;3.60;;;;;;;21.07;34.20;98296.11;107088;1276;22520;-77
2023/05/05 11:25:43;;;;;;;6.80;3.70;;;;;;;21.11;33.81;98293.61;107123;1276;23267;-78
2023/05/05 11:28:17;;;;;;;8.00;3.20;;;;;;;21.19;34.15;98296.98;107096;1276;22526;-79
2023/05/05 11:30:53;;;;;;;5.90;2.90;;;;;;;21.30;34.20;98297.86;107041;1276;22540;-80
2023/05/05 11:33:21;;;;;;;4.90;2.80;;;;;;;21.42;33.58;98296.39;107108;1276;22566;-78
2023/05/05 11:35:54;;;;;;;5.70;3.20;;;;;;;21.46;33.71;98295.48;107066;1276;22554;-78
2023/05/05 11:39:03;;;;;;;6.70;3.40;;;;;;;21.65;34.27;98291.45;107119;1272;23898;-78
2023/05/05 11:41:31;;;;;;;7.10;3.20;;;;;;;21.95;33.74;98289.98;107179;1276;22677;-78
2023/05/05 11:44:12;;;;;;;5.40;2.90;;;;;;;22.12;33.27;98294.27;107136;1276;22523;-79
2023/05/05 11:47:03;;;;;;;4.80;3.10;;;;;;;22.22;33.36;98295.19;107055;1276;23365;-79